Lonetree, Wyoming
Current Conditions -  °F | °C
As of 10:35 PM on Sunday 19 Oct 2014 (Local Time) from KFBR Reporting Station
Clear Clear  
Wind Chill:   Ceiling: Unl
Heat Index: 10°   Visibility: NA
Dew Point: -2°   Wind: 10mph
Humidity: 44%   Direction: 200°SSW
Pressure: 30.22"   Gusts: NA
Location:  41.0297°N, 110.145°W
Report Text: KFBR 200435Z AUTO 20009KT CLR 10/M02 A3022 RMK AO2 T00981020 PWINO
Loading
Personal Weather Stations






























Interactive Weather Map
Tropical Storm Tracking
New forecast layout! Learn more

10-Day Weather Forecast

Advertisements
Track Severe Weather on mobile